Time;durP1;ratioP1;P1;durP2;ratioP2;P2;SDS_P1;SDS_P2;PMS_P1;PMS_P2;Temp;Humidity;BMP_temperature;BMP_pressure;BME280_temperature;BME280_humidity;BME280_pressure;Samples;Min_cycle;Max_cycle;Signal;HPM_P1;HPM_P2
2021/01/31 00:00:36;;;;;;;15.15;10.68;;;;;;;1.88;88.34;97230.59;4920353;29;20229;-79
2021/01/31 00:03:07;;;;;;;13.10;10.02;;;;;;;1.77;88.11;97231.25;4917639;28;20224;-80
2021/01/31 00:05:34;;;;;;;12.55;9.65;;;;;;;1.79;88.24;97233.78;4940437;28;20200;-79
2021/01/31 00:08:00;;;;;;;14.18;10.02;;;;;;;1.84;87.97;97229.06;4935360;28;20594;-81
2021/01/31 00:10:29;;;;;;;13.73;10.98;;;;;;;1.76;88.15;97231.31;4914312;28;20731;-81
2021/01/31 00:12:57;;;;;;;11.85;9.98;;;;;;;1.85;88.23;97230.75;4909517;29;20338;-80
2021/01/31 00:15:28;;;;;;;13.90;10.52;;;;;;;1.85;88.17;97231.63;4916089;28;20635;-83
2021/01/31 00:17:54;;;;;;;14.30;11.00;;;;;;;1.83;87.79;97232.66;4897677;29;20296;-82
2021/01/31 00:20:22;;;;;;;15.02;10.25;;;;;;;1.88;87.89;97239.38;4915519;29;20197;-80
2021/01/31 00:22:51;;;;;;;14.30;11.20;;;;;;;1.85;87.91;97231.63;4926085;28;20239;-82
2021/01/31 00:25:18;;;;;;;12.10;9.60;;;;;;;1.99;88.18;97236.91;4913731;29;20228;-81
2021/01/31 00:27:45;;;;;;;13.23;10.20;;;;;;;1.80;87.67;97236.34;4917657;29;20266;-82
2021/01/31 00:30:19;;;;;;;12.48;9.45;;;;;;;1.85;87.72;97236.91;4916686;29;20244;-82
2021/01/31 00:32:46;;;;;;;16.50;11.00;;;;;;;1.89;87.83;97238.44;4938048;29;20237;-81
2021/01/31 00:35:16;;;;;;;14.00;10.27;;;;;;;1.92;87.86;97238.25;4932682;29;20264;-81
2021/01/31 00:37:42;;;;;;;15.85;11.55;;;;;;;2.01;88.34;97236.84;4901106;29;20225;-82
2021/01/31 00:40:09;;;;;;;13.45;10.95;;;;;;;1.96;87.88;97249.50;4905307;28;20217;-81
2021/01/31 00:42:35;;;;;;;14.20;10.52;;;;;;;1.99;87.85;97250.16;4947050;28;20228;-81
2021/01/31 00:45:06;;;;;;;14.80;10.63;;;;;;;1.93;87.52;97245.25;4921926;28;20193;-82
2021/01/31 00:47:32;;;;;;;15.05;10.80;;;;;;;1.93;87.56;97242.59;4932933;29;20206;-81
2021/01/31 00:49:58;;;;;;;14.57;9.98;;;;;;;1.86;87.07;97237.78;4909323;29;20259;-84
2021/01/31 00:52:24;;;;;;;14.95;11.10;;;;;;;1.85;87.67;97239.56;4927872;29;20244;-83
2021/01/31 00:54:51;;;;;;;14.98;11.00;;;;;;;1.90;87.96;97250.75;4928521;29;20221;-83
2021/01/31 00:57:19;;;;;;;15.88;11.75;;;;;;;1.92;87.55;97253.31;4922530;29;20399;-81
2021/01/31 00:59:45;;;;;;;15.93;11.80;;;;;;;1.95;87.61;97259.28;4910239;29;20210;-81
2021/01/31 01:02:19;;;;;;;17.38;11.10;;;;;;;1.96;87.58;97266.28;4937349;29;20253;-82
2021/01/31 01:04:48;;;;;;;14.88;11.32;;;;;;;1.91;87.55;97267.47;4932391;28;20241;-84
2021/01/31 01:07:18;;;;;;;16.13;11.13;;;;;;;1.89;87.39;97275.53;4920993;29;20233;-82
2021/01/31 01:09:45;;;;;;;12.43;9.60;;;;;;;1.95;87.67;97274.31;4916360;29;20210;-82
2021/01/31 01:12:12;;;;;;;16.80;10.60;;;;;;;1.99;87.19;97275.84;4929340;28;20275;-81
2021/01/31 01:14:38;;;;;;;14.43;10.55;;;;;;;1.95;87.01;97280.47;4933964;28;20197;-81
2021/01/31 01:17:04;;;;;;;16.70;11.77;;;;;;;2.05;87.17;97281.59;4947998;28;20222;-81
2021/01/31 01:19:31;;;;;;;15.73;10.73;;;;;;;2.00;87.30;97288.97;4933174;28;20267;-82
2021/01/31 01:21:57;;;;;;;17.13;11.18;;;;;;;2.11;87.25;97290.97;4922804;28;20243;-82
2021/01/31 01:24:23;;;;;;;16.25;11.10;;;;;;;2.05;86.72;97288.72;4924553;29;20240;-82
2021/01/31 01:26:50;;;;;;;15.63;10.55;;;;;;;2.06;86.90;97290.41;4918996;29;20225;-81
2021/01/31 01:29:16;;;;;;;15.25;11.23;;;;;;;2.01;86.62;97293.31;4909953;29;20215;-82
2021/01/31 01:31:43;;;;;;;15.95;11.15;;;;;;;2.04;87.04;97287.84;4926926;28;20234;-81
2021/01/31 01:34:09;;;;;;;15.98;11.55;;;;;;;2.02;86.84;97299.50;4947286;28;20236;-81
2021/01/31 01:36:36;;;;;;;18.25;11.90;;;;;;;2.05;87.26;97301.97;4931728;28;20221;-82
2021/01/31 01:39:03;;;;;;;19.60;12.27;;;;;;;1.97;86.61;97299.78;4907389;29;20249;-81
2021/01/31 01:41:37;;;;;;;16.90;11.88;;;;;;;1.97;86.51;97302.41;4903488;29;20301;-82
2021/01/31 01:44:03;;;;;;;18.33;12.02;;;;;;;2.03;86.61;97299.41;4928252;29;20237;-82
2021/01/31 01:46:37;;;;;;;15.15;11.23;;;;;;;2.00;86.01;97301.38;4916258;29;20241;-82
2021/01/31 01:49:29;;;;;;;20.98;13.02;;;;;;;1.82;85.90;97302.50;4904862;29;20644;-81
2021/01/31 01:51:57;;;;;;;16.27;11.52;;;;;;;1.88;86.22;97294.19;4909305;29;20234;-81
2021/01/31 01:54:29;;;;;;;17.00;11.75;;;;;;;1.81;86.30;97288.38;4920531;28;20257;-82
2021/01/31 01:57:01;;;;;;;19.90;11.38;;;;;;;1.87;86.16;97293.31;4929769;29;20647;-82
2021/01/31 01:59:31;;;;;;;16.85;11.43;;;;;;;2.00;86.79;97283.66;4938566;29;20249;-82
2021/01/31 02:02:08;;;;;;;15.45;11.50;;;;;;;1.94;86.14;97283.22;4915788;28;20714;-82
2021/01/31 02:04:35;;;;;;;17.25;11.63;;;;;;;2.02;85.97;97279.16;4925608;29;20324;-81
2021/01/31 02:07:01;;;;;;;15.63;11.00;;;;;;;1.98;85.73;97269.66;4920368;29;20282;-82
2021/01/31 02:09:27;;;;;;;15.45;11.13;;;;;;;1.97;85.96;97278.56;4924318;28;20225;-82
2021/01/31 02:11:57;;;;;;;18.90;13.40;;;;;;;1.90;86.35;97271.94;4916294;28;20232;-81
2021/01/31 02:14:24;;;;;;;18.02;12.60;;;;;;;1.95;85.90;97272.53;4914680;29;20618;-81
2021/01/31 02:16:57;;;;;;;19.27;12.15;;;;;;;1.95;85.98;97274.31;4919067;29;20317;-81
2021/01/31 02:20:01;;;;;;;18.08;12.55;;;;;;;1.95;85.89;97277.81;4915023;29;20217;-81
2021/01/31 02:22:45;;;;;;;16.92;11.38;;;;;;;1.88;85.98;97272.97;4937751;29;20256;-81
2021/01/31 02:25:36;;;;;;;15.35;11.07;;;;;;;1.90;85.85;97274.59;4926137;29;20240;-82
2021/01/31 02:28:35;;;;;;;17.63;12.95;;;;;;;1.90;85.94;97273.72;4934237;28;20717;-81
2021/01/31 02:31:32;;;;;;;18.70;13.50;;;;;;;1.89;86.19;97282.63;4900200;28;20253;-80
2021/01/31 02:34:22;;;;;;;17.23;11.68;;;;;;;1.83;85.62;97285.66;4916249;29;20229;-81
2021/01/31 02:37:03;;;;;;;17.77;11.43;;;;;;;1.82;86.16;97290.09;4909411;28;20314;-79
2021/01/31 02:39:43;;;;;;;20.15;13.35;;;;;;;1.85;85.59;97302.28;4938785;28;20224;-80
2021/01/31 02:42:11;;;;;;;14.88;10.80;;;;;;;1.78;84.94;97304.47;4934875;28;20225;-81
2021/01/31 02:44:41;;;;;;;14.40;10.70;;;;;;;1.70;85.08;97306.72;4941299;29;20203;-80
2021/01/31 02:47:19;;;;;;;18.95;11.65;;;;;;;1.70;85.82;97300.56;4919233;29;20233;-81
2021/01/31 02:49:54;;;;;;;16.05;12.07;;;;;;;1.64;86.11;97301.78;4938840;29;20598;-81
2021/01/31 02:52:32;;;;;;;19.63;12.90;;;;;;;1.69;86.30;97298.88;4927718;29;20229;-81
2021/01/31 02:55:28;;;;;;;15.30;11.15;;;;;;;1.71;86.60;97296.97;4923246;29;20225;-81
2021/01/31 02:58:16;;;;;;;19.08;12.60;;;;;;;1.78;86.35;97299.16;4923816;29;20308;-81
2021/01/31 03:01:10;;;;;;;16.70;11.45;;;;;;;1.78;85.66;97304.47;4914479;29;20233;-81
2021/01/31 03:03:42;;;;;;;18.30;12.25;;;;;;;1.77;85.97;97308.06;4907449;29;20294;-81
2021/01/31 03:06:13;;;;;;;18.50;13.10;;;;;;;1.80;86.36;97302.56;4915088;29;20250;-80
2021/01/31 03:08:48;;;;;;;20.98;13.52;;;;;;;1.86;86.71;97311.97;4897871;29;20190;-81
2021/01/31 03:11:22;;;;;;;19.45;12.80;;;;;;;1.84;86.17;97304.09;4917010;29;20229;-81
2021/01/31 03:13:57;;;;;;;20.33;13.20;;;;;;;1.91;85.68;97305.44;4927667;29;20240;-80
2021/01/31 03:16:37;;;;;;;19.38;13.05;;;;;;;1.85;86.35;97316.41;4940595;28;20292;-80
2021/01/31 03:19:24;;;;;;;19.70;13.05;;;;;;;1.76;85.97;97311.66;4916902;29;20232;-81
2021/01/31 03:21:57;;;;;;;23.40;15.48;;;;;;;1.81;85.71;97314.03;4915164;28;20230;-81
2021/01/31 03:24:35;;;;;;;22.70;14.73;;;;;;;1.82;86.07;97313.09;4917031;29;20257;-81
2021/01/31 03:27:07;;;;;;;22.23;13.73;;;;;;;1.82;85.93;97306.00;4911735;29;20205;-81
2021/01/31 03:29:33;;;;;;;23.23;15.48;;;;;;;1.88;85.86;97305.59;4911438;29;20222;-80
2021/01/31 03:32:06;;;;;;;21.90;15.13;;;;;;;1.90;86.01;97309.03;4924041;29;20225;-81
2021/01/31 03:34:39;;;;;;;19.25;13.55;;;;;;;1.92;85.86;97316.91;4928498;28;20261;-81
2021/01/31 03:37:08;;;;;;;21.90;13.60;;;;;;;1.85;85.72;97318.19;4927248;29;20277;-80
2021/01/31 03:39:38;;;;;;;20.30;12.90;;;;;;;1.74;85.76;97313.53;4921371;28;20261;-81
2021/01/31 03:42:04;;;;;;;19.92;12.80;;;;;;;1.80;86.12;97312.34;4908103;28;20319;-80
2021/01/31 03:44:33;;;;;;;18.95;12.82;;;;;;;1.95;85.83;97312.28;4919192;29;20205;-81
2021/01/31 03:47:04;;;;;;;16.38;11.45;;;;;;;1.84;85.23;97304.09;4919001;28;20689;-80
2021/01/31 03:49:37;;;;;;;17.90;12.38;;;;;;;1.95;85.50;97290.22;4931430;29;20226;-80
2021/01/31 03:52:04;;;;;;;17.92;12.18;;;;;;;1.91;85.47;97300.13;4909765;29;20297;-80
2021/01/31 03:54:30;;;;;;;14.00;11.00;;;;;;;2.04;85.61;97301.09;4905149;29;20338;-80
2021/01/31 03:57:01;;;;;;;15.35;10.77;;;;;;;1.95;84.80;97301.66;4917924;29;20198;-81
2021/01/31 03:59:40;;;;;;;15.60;11.18;;;;;;;1.90;85.01;97305.53;4917988;29;20194;-81
2021/01/31 04:02:09;;;;;;;17.70;11.80;;;;;;;1.88;84.48;97304.78;4915134;29;20229;-79
2021/01/31 04:04:47;;;;;;;17.40;11.65;;;;;;;1.88;84.43;97304.78;4920612;29;20225;-80
2021/01/31 04:07:18;;;;;;;15.23;11.20;;;;;;;1.89;84.06;97303.81;4916654;29;20229;-81
2021/01/31 04:09:45;;;;;;;18.73;11.65;;;;;;;1.82;84.16;97303.34;4914026;29;20297;-80
2021/01/31 04:12:15;;;;;;;16.67;11.00;;;;;;;1.79;84.54;97308.81;4928848;28;20241;-80
2021/01/31 04:15:00;;;;;;;16.15;11.73;;;;;;;1.78;85.00;97312.41;4956313;23;20699;-80
2021/01/31 04:17:26;;;;;;;19.00;13.13;;;;;;;1.76;85.03;97306.38;4958221;29;20737;-83
2021/01/31 04:19:52;;;;;;;17.95;11.65;;;;;;;1.70;85.04;97312.03;4946655;29;20650;-81
2021/01/31 04:22:18;;;;;;;20.77;12.30;;;;;;;1.77;85.34;97316.00;4927773;29;20235;-82
2021/01/31 04:24:46;;;;;;;19.67;12.20;;;;;;;1.74;85.03;97324.13;4949987;29;20233;-83
2021/01/31 04:27:13;;;;;;;16.80;11.50;;;;;;;1.68;85.01;97324.50;4917692;28;20327;-82
2021/01/31 04:29:40;;;;;;;18.83;12.32;;;;;;;1.76;85.23;97319.63;4945093;29;20196;-81
2021/01/31 04:32:13;;;;;;;17.95;12.70;;;;;;;1.77;85.08;97316.00;4939285;28;20696;-81
2021/01/31 04:34:40;;;;;;;17.35;12.20;;;;;;;1.74;84.73;97318.84;4921324;29;20237;-82
2021/01/31 04:37:06;;;;;;;19.27;12.52;;;;;;;1.73;84.34;97327.72;4929245;29;20259;-83
2021/01/31 04:39:32;;;;;;;18.02;12.27;;;;;;;1.64;84.58;97330.06;4939604;28;20251;-80
2021/01/31 04:41:59;;;;;;;18.42;12.30;;;;;;;1.59;84.89;97329.47;4923707;29;20197;-82
2021/01/31 04:44:25;;;;;;;20.67;12.95;;;;;;;1.65;84.67;97337.94;4948052;29;20244;-80
2021/01/31 04:47:06;;;;;;;18.83;13.30;;;;;;;1.70;84.05;97338.53;4896998;29;20292;-82
2021/01/31 04:49:39;;;;;;;18.50;12.20;;;;;;;1.62;84.45;97332.78;4921584;29;20248;-83
2021/01/31 04:52:11;;;;;;;19.88;14.05;;;;;;;1.62;84.36;97329.31;4935295;28;20269;-79
2021/01/31 04:54:57;;;;;;;18.10;12.30;;;;;;;1.54;84.28;97327.09;4957929;29;20228;-80
2021/01/31 04:57:42;;;;;;;20.35;12.88;;;;;;;1.63;84.70;97331.88;4947114;28;20232;-79
2021/01/31 05:00:16;;;;;;;20.98;13.85;;;;;;;1.60;84.92;97334.69;4941281;29;20264;-79
2021/01/31 05:02:48;;;;;;;20.05;13.63;;;;;;;1.66;84.97;97334.34;4940941;29;20201;-84
2021/01/31 05:05:23;;;;;;;22.17;13.75;;;;;;;1.68;84.84;97321.84;4941054;29;20235;-83
2021/01/31 05:07:58;;;;;;;21.95;14.25;;;;;;;1.62;84.43;97326.66;4926152;29;20233;-82
2021/01/31 05:10:26;;;;;;;21.27;13.57;;;;;;;1.55;84.77;97334.09;4946181;29;20220;-82
2021/01/31 05:13:26;;;;;;;25.13;15.10;;;;;;;1.65;84.83;97335.28;4910862;29;20228;-83
2021/01/31 05:16:06;;;;;;;23.00;14.88;;;;;;;1.62;84.66;97314.25;4916325;29;20229;-83
2021/01/31 05:18:38;;;;;;;21.65;14.02;;;;;;;1.59;84.74;97322.41;4932895;28;20236;-82
2021/01/31 05:21:08;;;;;;;22.10;14.48;;;;;;;1.71;84.64;97329.63;4940548;28;20177;-79
2021/01/31 05:23:40;;;;;;;23.60;14.60;;;;;;;1.78;84.79;97330.09;4947341;28;20209;-78
2021/01/31 05:26:09;;;;;;;22.38;14.18;;;;;;;1.80;84.41;97322.94;4954328;28;20209;-77
2021/01/31 05:28:39;;;;;;;23.20;14.40;;;;;;;1.81;84.32;97330.78;4952222;28;20328;-81
2021/01/31 05:31:12;;;;;;;20.83;13.75;;;;;;;1.82;84.17;97329.84;4959882;28;20239;-78
2021/01/31 05:33:55;;;;;;;20.02;13.30;;;;;;;1.84;84.11;97320.00;4955062;28;20213;-79
2021/01/31 05:36:25;;;;;;;23.67;13.90;;;;;;;1.86;84.26;97328.69;4927749;29;20228;-81
2021/01/31 05:38:52;;;;;;;21.08;14.07;;;;;;;1.81;83.79;97336.06;4938554;29;20215;-79
2021/01/31 05:41:31;;;;;;;21.50;13.60;;;;;;;1.63;83.95;97331.88;4926825;29;20646;-81
2021/01/31 05:44:08;;;;;;;19.80;13.88;;;;;;;1.61;84.40;97339.03;4964103;28;20217;-81
2021/01/31 05:46:42;;;;;;;24.52;13.60;;;;;;;1.66;84.47;97339.63;4972052;28;20216;-80
2021/01/31 05:49:13;;;;;;;23.15;14.60;;;;;;;1.60;84.70;97336.50;4925977;29;20231;-81
2021/01/31 05:51:44;;;;;;;26.25;15.30;;;;;;;1.69;84.74;97347.38;4932373;29;20272;-81
2021/01/31 05:54:37;;;;;;;22.95;14.55;;;;;;;1.72;84.35;97357.81;4946146;28;20243;-83
2021/01/31 05:57:30;;;;;;;22.25;14.95;;;;;;;1.62;84.10;97367.22;4942435;28;20926;-82
2021/01/31 05:59:58;;;;;;;25.42;15.52;;;;;;;1.81;83.58;97361.72;4948793;29;20272;-84
2021/01/31 06:02:28;;;;;;;22.52;15.40;;;;;;;1.78;83.02;97368.06;4941388;29;20215;-82
2021/01/31 06:05:18;;;;;;;26.58;15.35;;;;;;;1.78;83.58;97373.34;4947141;28;20278;-82
2021/01/31 06:07:56;;;;;;;22.88;14.18;;;;;;;1.77;83.71;97371.66;4940372;29;20266;-81
2021/01/31 06:10:23;;;;;;;23.80;14.88;;;;;;;1.70;83.76;97372.09;4958307;28;20228;-79
2021/01/31 06:12:50;;;;;;;23.25;14.23;;;;;;;1.72;83.89;97384.31;4957010;28;20208;-80
2021/01/31 06:15:28;;;;;;;20.58;14.57;;;;;;;1.57;83.54;97387.00;4957785;28;20216;-80
2021/01/31 06:18:00;;;;;;;23.58;15.60;;;;;;;1.68;83.77;97396.00;4961241;28;20201;-80
2021/01/31 06:20:38;;;;;;;25.70;15.45;;;;;;;1.71;83.42;97389.69;4938729;29;20664;-80
2021/01/31 06:23:05;;;;;;;23.33;15.32;;;;;;;1.77;83.85;97394.63;4934477;28;20303;-81
2021/01/31 06:25:32;;;;;;;22.58;14.88;;;;;;;1.67;83.50;97391.66;4952789;28;20256;-79
2021/01/31 06:28:11;;;;;;;21.80;14.80;;;;;;;1.60;83.80;97398.25;4973626;28;20208;-79
2021/01/31 06:30:44;;;;;;;20.83;14.57;;;;;;;1.59;83.69;97399.19;4947659;28;20209;-79
2021/01/31 06:33:11;;;;;;;24.63;15.60;;;;;;;1.65;83.92;97398.84;4947970;28;20192;-82
2021/01/31 06:35:37;;;;;;;21.27;13.90;;;;;;;1.67;83.85;97396.97;4946634;29;20205;-79
2021/01/31 06:38:25;;;;;;;22.98;14.38;;;;;;;1.73;83.66;97409.00;4951804;29;20268;-81
2021/01/31 06:41:25;;;;;;;23.05;14.55;;;;;;;1.71;83.13;97414.41;4934229;28;20267;-82
2021/01/31 06:44:12;;;;;;;22.20;15.60;;;;;;;1.72;83.13;97424.03;4914458;29;20220;-84
2021/01/31 06:47:10;;;;;;;23.58;14.75;;;;;;;1.68;83.13;97414.56;4934412;28;20229;-82
2021/01/31 06:49:49;;;;;;;21.27;14.40;;;;;;;1.69;83.04;97416.25;4944594;28;20228;-80
2021/01/31 06:52:37;;;;;;;23.17;14.10;;;;;;;1.71;82.99;97430.28;4934913;29;20240;-81
2021/01/31 06:55:36;;;;;;;19.23;13.40;;;;;;;1.70;82.14;97433.88;4948365;28;20324;-81
2021/01/31 06:58:21;;;;;;;21.80;13.25;;;;;;;1.64;82.37;97439.53;4934654;28;20228;-82
2021/01/31 07:01:20;;;;;;;22.63;14.52;;;;;;;1.52;82.82;97440.22;4936151;29;20220;-80
2021/01/31 07:04:06;;;;;;;24.40;15.48;;;;;;;1.53;83.08;97447.22;4937150;28;20233;-82
2021/01/31 07:06:45;;;;;;;24.85;15.07;;;;;;;1.54;83.10;97442.78;4942708;28;20216;-81
2021/01/31 07:09:30;;;;;;;21.05;14.00;;;;;;;1.58;82.78;97444.31;4935481;28;21184;-82
2021/01/31 07:12:16;;;;;;;22.40;14.73;;;;;;;1.60;82.35;97445.09;4933522;28;20224;-80
2021/01/31 07:15:04;;;;;;;23.10;14.27;;;;;;;1.57;82.58;97432.88;4914828;29;20263;-82
2021/01/31 07:18:03;;;;;;;20.45;13.43;;;;;;;1.46;83.03;97429.97;4934023;29;20236;-81
2021/01/31 07:20:43;;;;;;;21.50;14.13;;;;;;;1.44;83.54;97431.88;4906605;29;20244;-81
2021/01/31 07:23:22;;;;;;;24.15;15.60;;;;;;;1.49;83.63;97432.44;4935019;29;20235;-82
2021/01/31 07:25:55;;;;;;;23.83;14.25;;;;;;;1.55;83.14;97423.31;4970428;28;20220;-81
2021/01/31 07:28:36;;;;;;;24.08;15.18;;;;;;;1.55;83.58;97423.31;4932993;29;20323;-82
2021/01/31 07:31:11;;;;;;;23.83;14.82;;;;;;;1.53;83.60;97428.69;4916430;28;20220;-82
2021/01/31 07:33:59;;;;;;;20.63;13.85;;;;;;;1.55;82.92;97436.56;4931610;29;20239;-82
2021/01/31 07:36:40;;;;;;;22.75;15.10;;;;;;;1.52;82.83;97434.94;4933103;29;20228;-81
2021/01/31 07:39:10;;;;;;;21.08;13.82;;;;;;;1.54;83.34;97433.03;4923079;28;20204;-84
2021/01/31 07:41:49;;;;;;;22.85;14.02;;;;;;;1.60;83.25;97437.97;4935701;29;20196;-82
2021/01/31 07:44:23;;;;;;;21.83;13.93;;;;;;;1.67;82.84;97439.34;4933743;29;20236;-82
2021/01/31 07:46:50;;;;;;;22.10;14.25;;;;;;;1.62;82.68;97444.03;4913924;29;20276;-82
2021/01/31 07:49:16;;;;;;;21.13;14.27;;;;;;;1.65;82.56;97441.22;4924672;29;20280;-79
2021/01/31 07:52:01;;;;;;;23.05;15.88;;;;;;;1.66;82.52;97445.59;4936228;29;20237;-81
2021/01/31 07:54:27;;;;;;;20.90;14.27;;;;;;;1.62;81.90;97459.09;4906693;28;20259;-83
2021/01/31 07:56:55;;;;;;;18.85;13.30;;;;;;;1.58;81.72;97457.53;4919695;28;20197;-81
2021/01/31 07:59:31;;;;;;;20.08;13.73;;;;;;;1.61;82.12;97457.38;4950048;29;20201;-82
2021/01/31 08:01:58;;;;;;;23.65;14.65;;;;;;;1.66;82.29;97471.19;4934102;29;20228;-84
2021/01/31 08:04:46;;;;;;;21.88;15.70;;;;;;;1.65;81.87;97473.03;4934233;29;20251;-83
2021/01/31 08:07:50;;;;;;;21.10;14.18;;;;;;;1.77;81.83;97466.16;4926655;28;20284;-80
2021/01/31 08:10:42;;;;;;;23.08;12.40;;;;;;;1.77;81.66;97477.63;4930512;28;20323;-82
2021/01/31 08:13:41;;;;;;;19.65;12.60;;;;;;;1.92;81.30;97484.69;4901138;29;20375;-82
2021/01/31 08:16:47;;;;;;;21.77;13.85;;;;;;;2.04;81.25;97473.38;4937795;29;20229;-81
2021/01/31 08:19:16;;;;;;;20.52;13.98;;;;;;;2.01;80.63;97475.34;4942428;29;20264;-83
2021/01/31 08:22:12;;;;;;;24.07;14.07;;;;;;;2.07;80.32;97481.13;4918539;29;20276;-83
2021/01/31 08:25:06;;;;;;;20.63;13.25;;;;;;;2.03;80.60;97484.94;4948769;28;20846;-84
2021/01/31 08:27:38;;;;;;;22.65;14.35;;;;;;;1.92;80.22;97483.84;4934003;28;20225;-82
2021/01/31 08:30:13;;;;;;;23.88;14.65;;;;;;;1.91;80.48;97479.47;4922687;29;20228;-81
2021/01/31 08:32:58;;;;;;;22.25;14.98;;;;;;;1.98;80.88;97465.78;4925287;29;20228;-84
2021/01/31 08:35:34;;;;;;;22.85;14.35;;;;;;;1.91;80.83;97458.25;4934761;29;20771;-80
2021/01/31 08:38:15;;;;;;;19.52;14.15;;;;;;;1.85;81.11;97474.50;4937073;28;20230;-83
2021/01/31 08:41:00;;;;;;;20.27;13.35;;;;;;;1.93;80.65;97481.09;4942940;28;20260;-82
2021/01/31 08:43:31;;;;;;;22.83;15.95;;;;;;;1.93;80.78;97483.75;4952941;28;20224;-83
2021/01/31 08:46:22;;;;;;;21.60;14.40;;;;;;;1.96;80.48;97470.31;4937642;28;20256;-82
2021/01/31 08:49:00;;;;;;;27.80;13.65;;;;;;;2.01;80.78;97464.75;4945399;28;20228;-82
2021/01/31 08:51:35;;;;;;;24.70;13.50;;;;;;;2.06;80.35;97465.34;4954979;28;20232;-79
2021/01/31 08:54:14;;;;;;;20.73;14.27;;;;;;;2.14;80.34;97458.66;4949420;28;20292;-79
2021/01/31 08:57:04;;;;;;;22.85;14.18;;;;;;;2.23;79.95;97466.06;4962810;29;20406;-79
2021/01/31 08:59:34;;;;;;;20.50;13.55;;;;;;;2.18;79.59;97461.97;4953984;29;20216;-80
2021/01/31 09:02:16;;;;;;;21.00;14.32;;;;;;;2.18;79.57;97462.81;4943843;28;20252;-81
2021/01/31 09:04:57;;;;;;;21.83;14.45;;;;;;;2.15;79.96;97457.72;4974800;28;20248;-79
2021/01/31 09:07:37;;;;;;;22.58;14.85;;;;;;;2.08;80.06;97458.16;4940676;28;20228;-81
2021/01/31 09:10:25;;;;;;;23.98;14.73;;;;;;;2.27;79.87;97456.13;4939699;29;20243;-79
2021/01/31 09:13:10;;;;;;;20.95;13.55;;;;;;;2.28;79.89;97479.03;4934757;29;20722;-81
2021/01/31 09:15:37;;;;;;;22.45;14.60;;;;;;;2.14;80.03;97479.00;4948018;29;20239;-78
2021/01/31 09:18:09;;;;;;;21.33;14.40;;;;;;;2.12;80.15;97489.69;4949154;28;20228;-81
2021/01/31 09:20:35;;;;;;;21.75;14.02;;;;;;;2.17;79.81;97498.22;4969074;29;20212;-78
2021/01/31 09:23:07;;;;;;;22.13;14.57;;;;;;;2.21;79.25;97498.91;4944735;29;20252;-78
2021/01/31 09:25:36;;;;;;;23.90;15.23;;;;;;;2.23;79.23;97489.91;4927725;29;20236;-82
2021/01/31 09:28:24;;;;;;;21.08;14.45;;;;;;;2.20;79.24;97490.09;4934837;29;20295;-79
2021/01/31 09:30:59;;;;;;;21.95;13.02;;;;;;;2.25;79.45;97484.53;4963468;28;20224;-81
2021/01/31 09:33:38;;;;;;;20.40;13.52;;;;;;;2.31;79.25;97479.72;4972098;28;20216;-79
2021/01/31 09:36:16;;;;;;;22.77;15.55;;;;;;;2.41;79.30;97464.09;4961988;28;20200;-79
2021/01/31 09:38:45;;;;;;;20.33;14.65;;;;;;;2.44;78.88;97463.94;4949199;28;20195;-78
2021/01/31 09:41:11;;;;;;;23.02;14.40;;;;;;;2.45;78.78;97466.47;4971424;28;20251;-78
2021/01/31 09:43:38;;;;;;;25.63;15.57;;;;;;;2.51;78.40;97468.78;4952373;28;20232;-83
2021/01/31 09:46:11;;;;;;;23.30;14.88;;;;;;;2.74;78.65;97462.94;4950365;29;20216;-82
2021/01/31 09:48:39;;;;;;;25.42;15.60;;;;;;;2.95;77.95;97461.63;4962967;28;20232;-79
2021/01/31 09:51:14;;;;;;;22.88;14.85;;;;;;;3.00;77.35;97462.19;4946770;28;20212;-80
2021/01/31 09:53:42;;;;;;;23.92;15.00;;;;;;;2.90;76.79;97463.69;4942301;29;20292;-80
2021/01/31 09:56:42;;;;;;;23.77;15.85;;;;;;;2.97;76.54;97459.72;4945651;29;20288;-80
2021/01/31 09:59:21;;;;;;;27.63;14.45;;;;;;;2.77;77.08;97473.34;4965798;28;20233;-81
2021/01/31 10:01:49;;;;;;;23.85;15.40;;;;;;;2.89;77.37;97482.38;4950721;29;20235;-79
2021/01/31 10:08:07;;;;;;;21.63;14.52;;;;;;;3.28;76.75;97488.72;4889283;29;20228;-80
2021/01/31 10:10:50;;;;;;;24.33;15.20;;;;;;;3.02;76.13;97483.34;4875779;28;20220;-79
2021/01/31 10:13:52;;;;;;;23.52;13.95;;;;;;;3.07;77.09;97476.78;4940795;28;20297;-79
2021/01/31 10:16:30;;;;;;;22.27;14.25;;;;;;;3.08;76.53;97473.19;5002298;23;20215;-84
2021/01/31 10:19:09;;;;;;;23.42;15.63;;;;;;;3.05;76.93;97477.81;4983288;28;20284;-86
2021/01/31 10:21:58;;;;;;;23.42;15.20;;;;;;;3.11;76.61;97475.66;4978310;28;20212;-83
2021/01/31 10:24:31;;;;;;;24.05;15.73;;;;;;;3.07;76.84;97471.47;4953475;28;20239;-83
2021/01/31 10:27:08;;;;;;;23.83;15.25;;;;;;;3.09;77.04;97469.56;4958490;28;20216;-83
2021/01/31 10:29:36;;;;;;;22.42;15.88;;;;;;;3.13;77.02;97459.59;4953728;29;20197;-82
2021/01/31 10:32:47;;;;;;;21.00;15.30;;;;;;;3.12;76.87;97458.78;4947650;28;20248;-83
2021/01/31 10:35:28;;;;;;;23.13;15.65;;;;;;;3.11;77.71;97450.91;4932653;29;20290;-82
2021/01/31 10:37:57;;;;;;;23.63;15.30;;;;;;;3.06;77.66;97464.47;4933203;28;20225;-84
2021/01/31 10:40:23;;;;;;;28.02;17.33;;;;;;;3.05;77.32;97461.91;4932456;28;20241;-85
2021/01/31 10:43:10;;;;;;;27.70;16.55;;;;;;;2.96;77.77;97465.97;4920852;28;20229;-82
2021/01/31 10:45:38;;;;;;;28.35;16.85;;;;;;;2.98;77.56;97458.78;4942502;29;20323;-83
2021/01/31 10:48:04;;;;;;;29.08;17.02;;;;;;;2.92;78.21;97453.00;4950715;28;20209;-84
2021/01/31 10:50:31;;;;;;;29.85;17.58;;;;;;;2.96;77.97;97460.66;4951531;29;20196;-83
2021/01/31 10:52:58;;;;;;;25.70;15.82;;;;;;;3.09;78.03;97458.13;4963878;28;20695;-81
2021/01/31 10:55:24;;;;;;;24.80;15.75;;;;;;;3.14;77.88;97454.22;4954214;28;20225;-82
2021/01/31 10:57:50;;;;;;;28.48;17.20;;;;;;;3.18;77.44;97453.09;4956108;28;20240;-81
2021/01/31 11:00:17;;;;;;;27.80;17.88;;;;;;;3.20;77.78;97448.53;4946471;28;20228;-82
2021/01/31 11:02:43;;;;;;;25.30;16.10;;;;;;;3.21;77.00;97444.91;4959960;28;20193;-82
2021/01/31 11:05:12;;;;;;;25.85;16.75;;;;;;;3.16;77.31;97444.34;4958848;28;20232;-82
2021/01/31 11:07:38;;;;;;;27.73;17.58;;;;;;;2.98;77.93;97434.03;4940415;28;20232;-82
2021/01/31 11:10:05;;;;;;;26.50;17.50;;;;;;;2.97;78.45;97437.63;4941950;29;20244;-82
2021/01/31 11:12:32;;;;;;;27.45;17.45;;;;;;;3.05;78.67;97435.34;4946135;29;20236;-82
2021/01/31 11:14:58;;;;;;;28.75;17.75;;;;;;;3.10;78.52;97438.56;4957944;29;20209;-82
2021/01/31 11:17:24;;;;;;;27.23;17.10;;;;;;;3.14;78.41;97421.50;4962639;29;20252;-82
2021/01/31 11:19:51;;;;;;;25.63;17.02;;;;;;;3.16;78.33;97425.75;4964220;28;20255;-81
2021/01/31 11:22:17;;;;;;;31.35;18.40;;;;;;;3.11;77.64;97433.19;4963714;28;20220;-81
2021/01/31 11:24:45;;;;;;;27.17;17.05;;;;;;;3.05;77.86;97430.91;4965408;28;20240;-83
2021/01/31 11:27:12;;;;;;;34.67;20.20;;;;;;;2.91;78.62;97433.56;4939529;29;20232;-82
2021/01/31 11:29:38;;;;;;;30.45;17.50;;;;;;;2.90;78.68;97438.97;4955867;29;20230;-81
2021/01/31 11:32:05;;;;;;;46.22;26.33;;;;;;;2.73;79.35;97441.78;4951048;28;20232;-82
2021/01/31 11:34:32;;;;;;;29.85;18.25;;;;;;;2.73;79.23;97434.69;4956993;28;20224;-81
2021/01/31 11:36:58;;;;;;;29.20;18.55;;;;;;;2.80;79.89;97436.03;4957320;28;20221;-81
2021/01/31 11:39:25;;;;;;;32.10;18.98;;;;;;;2.83;79.75;97433.16;4959042;28;20212;-81
2021/01/31 11:41:51;;;;;;;30.35;19.73;;;;;;;2.88;79.62;97427.59;4971433;28;20260;-82
2021/01/31 11:44:19;;;;;;;31.08;18.52;;;;;;;3.00;79.42;97427.69;4961724;28;20228;-82
2021/01/31 11:46:45;;;;;;;31.02;18.85;;;;;;;3.16;78.98;97422.25;4950356;28;20253;-81
2021/01/31 11:49:12;;;;;;;29.48;18.60;;;;;;;3.15;79.17;97416.09;4941895;28;20709;-86
2021/01/31 11:51:39;;;;;;;28.95;18.35;;;;;;;3.18;78.98;97417.69;4954364;28;20233;-82
2021/01/31 11:54:05;;;;;;;30.73;18.58;;;;;;;3.10;78.89;97418.19;4955675;28;20223;-85
2021/01/31 11:56:33;;;;;;;30.85;19.25;;;;;;;3.08;78.48;97420.06;4946228;29;20220;-84
2021/01/31 11:59:00;;;;;;;28.67;18.20;;;;;;;3.13;78.83;97420.66;4958205;29;20312;-83
2021/01/31 12:01:26;;;;;;;28.90;18.00;;;;;;;3.24;78.64;97412.00;4922061;29;20225;-82